Time;durP1;ratioP1;P1;durP2;ratioP2;P2;SDS_P1;SDS_P2;PMS_P1;PMS_P2;Temp;Humidity;BMP_temperature;BMP_pressure;BME280_temperature;BME280_humidity;BME280_pressure;Samples;Min_cycle;Max_cycle;Signal;HPM_P1;HPM_P2
2022/09/29 00:02:17;;;;;;;;;;;16.50;99.90;;;;;;4940094;29;19927;-69
2022/09/29 00:04:44;;;;;;;;;;;16.40;99.90;;;;;;4939525;29;19987;-68
2022/09/29 00:07:11;;;;;;;;;;;16.50;99.90;;;;;;4939322;29;19919;-72
2022/09/29 00:09:38;;;;;;;;;;;16.50;99.90;;;;;;4940580;29;20330;-68
2022/09/29 00:12:04;;;;;;;;;;;16.40;99.90;;;;;;4939402;29;19911;-71
2022/09/29 00:14:31;;;;;;;;;;;16.30;99.90;;;;;;4938591;29;19919;-68
2022/09/29 00:16:58;;;;;;;;;;;16.10;99.90;;;;;;4935785;29;19915;-70
2022/09/29 00:19:26;;;;;;;;;;;15.90;99.90;;;;;;4936744;29;19921;-74
2022/09/29 00:21:52;;;;;;;;;;;15.70;99.90;;;;;;4938330;29;19921;-66
2022/09/29 00:24:19;;;;;;;;;;;15.60;99.90;;;;;;4944446;29;19919;-69
2022/09/29 00:26:46;;;;;;;;;;;15.40;99.90;;;;;;4938455;29;20010;-68
2022/09/29 00:29:13;;;;;;;;;;;15.20;99.90;;;;;;4936056;29;19930;-67
2022/09/29 00:31:39;;;;;;;;;;;15.00;99.90;;;;;;4937548;29;19911;-69
2022/09/29 00:34:07;;;;;;;;;;;14.80;99.90;;;;;;4937874;29;19910;-67
2022/09/29 00:36:34;;;;;;;;;;;14.80;99.90;;;;;;4937517;29;19915;-67
2022/09/29 00:39:03;;;;;;;;;;;14.70;99.90;;;;;;4935956;29;20337;-69
2022/09/29 00:41:32;;;;;;;;;;;14.70;99.90;;;;;;4935623;29;20014;-68
2022/09/29 00:44:01;;;;;;;;;;;14.70;99.90;;;;;;4936866;29;20311;-68
2022/09/29 00:46:31;;;;;;;;;;;14.70;99.90;;;;;;4937513;29;19910;-71
2022/09/29 00:49:07;;;;;;;;;;;14.70;99.90;;;;;;4936876;29;19911;-68
2022/09/29 00:51:36;;;;;;;;;;;14.60;99.90;;;;;;4937531;29;19919;-68
2022/09/29 00:54:04;;;;;;;;;;;14.60;99.90;;;;;;4937089;29;20402;-69
2022/09/29 00:56:31;;;;;;;;;;;14.60;99.90;;;;;;4936749;29;19915;-70
2022/09/29 00:59:04;;;;;;;;;;;14.70;99.90;;;;;;4936476;29;19911;-69
2022/09/29 01:01:31;;;;;;;;;;;14.60;99.90;;;;;;4937153;29;19926;-69
2022/09/29 01:04:04;;;;;;;;;;;14.70;99.90;;;;;;4937140;29;19919;-70
2022/09/29 01:06:39;;;;;;;;;;;14.80;99.90;;;;;;4937945;29;19918;-69
2022/09/29 01:09:10;;;;;;;;;;;14.90;99.90;;;;;;4936354;29;19919;-69
2022/09/29 01:11:37;;;;;;;;;;;15.10;99.90;;;;;;4936602;29;19918;-67
2022/09/29 01:14:05;;;;;;;;;;;15.20;99.90;;;;;;4940006;29;19915;-68
2022/09/29 01:16:33;;;;;;;;;;;15.30;99.90;;;;;;4938666;29;19911;-67
2022/09/29 01:19:02;;;;;;;;;;;15.40;99.90;;;;;;4940349;29;19923;-66
2022/09/29 01:21:37;;;;;;;;;;;15.40;99.90;;;;;;4936295;29;20397;-67
2022/09/29 01:24:13;;;;;;;;;;;15.40;99.90;;;;;;4936553;29;19927;-69
2022/09/29 01:26:55;;;;;;;;;;;15.50;99.90;;;;;;4936390;29;19910;-68
2022/09/29 01:29:40;;;;;;;;;;;15.50;99.90;;;;;;4935531;29;20233;-70
2022/09/29 01:32:22;;;;;;;;;;;15.80;99.90;;;;;;4936445;29;19911;-67
2022/09/29 01:35:01;;;;;;;;;;;15.90;99.90;;;;;;4936147;29;19922;-69
2022/09/29 01:37:38;;;;;;;;;;;16.00;99.90;;;;;;4934882;29;19963;-69
2022/09/29 01:40:10;;;;;;;;;;;16.00;99.90;;;;;;4935517;29;19911;-67
2022/09/29 01:42:57;;;;;;;;;;;16.00;99.90;;;;;;4935881;29;19919;-69
2022/09/29 01:45:34;;;;;;;;;;;16.00;99.90;;;;;;4935655;29;19922;-68
2022/09/29 01:48:04;;;;;;;;;;;16.10;99.90;;;;;;4935959;29;19918;-68
2022/09/29 01:50:37;;;;;;;;;;;16.10;99.90;;;;;;4935420;29;19961;-68
2022/09/29 01:53:08;;;;;;;;;;;16.00;99.90;;;;;;4935429;29;19911;-68
2022/09/29 01:55:40;;;;;;;;;;;16.20;99.90;;;;;;4935570;29;19911;-70
2022/09/29 01:58:09;;;;;;;;;;;16.60;99.90;;;;;;4935695;29;19915;-67
2022/09/29 02:00:38;;;;;;;;;;;16.80;99.90;;;;;;4936195;29;19927;-67
2022/09/29 02:03:05;;;;;;;;;;;17.00;99.90;;;;;;4936795;29;19922;-68
2022/09/29 02:05:42;;;;;;;;;;;17.10;99.90;;;;;;4934194;29;19982;-68
2022/09/29 02:08:11;;;;;;;;;;;17.10;99.90;;;;;;4935186;29;19910;-67
2022/09/29 02:10:46;;;;;;;;;;;16.90;99.90;;;;;;4935280;29;19918;-68
2022/09/29 02:13:15;;;;;;;;;;;16.70;99.90;;;;;;4935133;29;19937;-68
2022/09/29 02:15:45;;;;;;;;;;;16.60;99.90;;;;;;4933718;29;19915;-67
2022/09/29 02:18:16;;;;;;;;;;;16.50;99.90;;;;;;4934061;29;20371;-68
2022/09/29 02:20:42;;;;;;;;;;;16.60;99.90;;;;;;4934416;29;19919;-70
2022/09/29 02:23:10;;;;;;;;;;;16.70;99.90;;;;;;4934902;29;19926;-66
2022/09/29 02:25:38;;;;;;;;;;;16.80;99.90;;;;;;4935116;29;19914;-67
2022/09/29 02:28:05;;;;;;;;;;;16.90;99.90;;;;;;4935136;29;20374;-68
2022/09/29 02:30:33;;;;;;;;;;;17.10;99.90;;;;;;4934515;29;19911;-68
2022/09/29 02:32:59;;;;;;;;;;;17.20;99.90;;;;;;4934964;29;20254;-69
2022/09/29 02:35:49;;;;;;;;;;;17.20;99.90;;;;;;4934578;29;19911;-69
2022/09/29 02:38:25;;;;;;;;;;;17.30;99.90;;;;;;4935201;29;19911;-68
2022/09/29 02:40:58;;;;;;;;;;;17.40;99.90;;;;;;4934785;29;19910;-69
2022/09/29 02:43:35;;;;;;;;;;;17.30;99.90;;;;;;4934633;29;19923;-69
2022/09/29 02:46:17;;;;;;;;;;;17.30;99.90;;;;;;4933712;29;20082;-68
2022/09/29 02:48:50;;;;;;;;;;;17.30;99.90;;;;;;4933908;29;19922;-67
2022/09/29 02:51:22;;;;;;;;;;;17.40;99.90;;;;;;4934482;29;19911;-67
2022/09/29 02:53:55;;;;;;;;;;;17.40;99.90;;;;;;4934329;29;20002;-68
2022/09/29 02:56:29;;;;;;;;;;;17.50;99.90;;;;;;4934723;29;19911;-67
2022/09/29 02:59:01;;;;;;;;;;;17.60;99.90;;;;;;4934509;29;20386;-72
2022/09/29 03:01:32;;;;;;;;;;;17.50;99.90;;;;;;4934532;29;19923;-72
2022/09/29 03:03:59;;;;;;;;;;;17.60;99.90;;;;;;4934469;29;20355;-69
2022/09/29 03:06:26;;;;;;;;;;;17.70;99.90;;;;;;4934823;29;19915;-68
2022/09/29 03:08:52;;;;;;;;;;;17.90;99.90;;;;;;4934605;29;19966;-69
2022/09/29 03:11:19;;;;;;;;;;;17.80;99.90;;;;;;4934438;29;19914;-68
2022/09/29 03:13:46;;;;;;;;;;;17.70;99.90;;;;;;4934570;29;20330;-70
2022/09/29 03:16:12;;;;;;;;;;;18.00;99.90;;;;;;4934661;29;19959;-68
2022/09/29 03:18:39;;;;;;;;;;;18.10;99.90;;;;;;4937410;29;20294;-69
2022/09/29 03:21:06;;;;;;;;;;;18.00;99.90;;;;;;4938641;29;20318;-69
2022/09/29 03:23:33;;;;;;;;;;;18.00;99.90;;;;;;4938533;29;19919;-69
2022/09/29 03:25:59;;;;;;;;;;;17.80;99.90;;;;;;4938384;29;19915;-68
2022/09/29 03:28:26;;;;;;;;;;;17.70;99.90;;;;;;4938478;29;19918;-72
2022/09/29 03:30:54;;;;;;;;;;;17.80;99.90;;;;;;4938156;29;20422;-70
2022/09/29 03:33:21;;;;;;;;;;;17.90;99.90;;;;;;4938183;29;20381;-70
2022/09/29 03:35:47;;;;;;;;;;;18.00;99.90;;;;;;4940236;29;19915;-70
2022/09/29 03:38:14;;;;;;;;;;;17.90;99.90;;;;;;4943408;29;19911;-71
2022/09/29 03:40:41;;;;;;;;;;;18.00;99.90;;;;;;4938164;29;19917;-67
2022/09/29 03:43:07;;;;;;;;;;;18.10;99.90;;;;;;4937891;29;19919;-72
2022/09/29 03:45:34;;;;;;;;;;;18.00;99.90;;;;;;4936729;29;19982;-69
2022/09/29 03:48:01;;;;;;;;;;;18.00;99.90;;;;;;4937845;29;19914;-73
2022/09/29 03:50:27;;;;;;;;;;;18.00;99.90;;;;;;4937863;29;19921;-68
2022/09/29 03:52:54;;;;;;;;;;;18.20;99.90;;;;;;4938229;29;19970;-72
2022/09/29 03:55:21;;;;;;;;;;;18.20;99.90;;;;;;4937795;29;19914;-67
2022/09/29 03:57:47;;;;;;;;;;;18.20;99.90;;;;;;4937830;29;20437;-71
2022/09/29 04:00:14;;;;;;;;;;;18.20;99.90;;;;;;4934771;29;19919;-67
2022/09/29 04:02:41;;;;;;;;;;;18.20;99.90;;;;;;4937174;29;19919;-68
2022/09/29 04:05:08;;;;;;;;;;;18.10;99.90;;;;;;4937571;29;19974;-76
2022/09/29 04:07:35;;;;;;;;;;;18.00;99.90;;;;;;4937380;29;19918;-68
2022/09/29 04:10:01;;;;;;;;;;;17.90;99.90;;;;;;4936277;29;20282;-68
2022/09/29 04:12:28;;;;;;;;;;;17.80;99.90;;;;;;4937543;29;19926;-69
2022/09/29 04:14:55;;;;;;;;;;;17.60;99.90;;;;;;4936220;29;19911;-75
2022/09/29 04:17:22;;;;;;;;;;;17.50;99.90;;;;;;4937703;29;19985;-72
2022/09/29 04:19:48;;;;;;;;;;;17.60;99.90;;;;;;4937093;29;19914;-74
2022/09/29 04:22:18;;;;;;;;;;;17.60;99.90;;;;;;4937761;29;19914;-72
2022/09/29 04:24:47;;;;;;;;;;;17.50;99.90;;;;;;4927015;29;19923;-73
2022/09/29 04:27:14;;;;;;;;;;;17.50;99.90;;;;;;4916990;29;19915;-73
2022/09/29 04:29:41;;;;;;;;;;;17.40;99.90;;;;;;4917731;29;19915;-73
2022/09/29 04:32:09;;;;;;;;;;;17.40;99.90;;;;;;4918183;29;20359;-71
2022/09/29 04:34:36;;;;;;;;;;;17.50;99.90;;;;;;4918148;29;20397;-71
2022/09/29 04:37:03;;;;;;;;;;;17.40;99.90;;;;;;4916818;29;19919;-73
2022/09/29 04:39:31;;;;;;;;;;;17.40;99.90;;;;;;4917518;29;19911;-73
2022/09/29 04:41:58;;;;;;;;;;;17.40;99.90;;;;;;4918133;29;19911;-72
2022/09/29 04:44:24;;;;;;;;;;;17.10;99.90;;;;;;4918091;29;19923;-68
2022/09/29 04:46:51;;;;;;;;;;;16.50;99.90;;;;;;4918041;29;19911;-72
2022/09/29 04:49:18;;;;;;;;;;;16.00;99.90;;;;;;4917333;29;19917;-68
2022/09/29 04:51:45;;;;;;;;;;;15.90;99.90;;;;;;4917925;29;20010;-67
2022/09/29 04:54:12;;;;;;;;;;;16.00;99.90;;;;;;4926752;29;19945;-68
2022/09/29 04:56:38;;;;;;;;;;;15.90;99.90;;;;;;4934471;29;20002;-68
2022/09/29 04:59:05;;;;;;;;;;;15.80;99.90;;;;;;4936509;29;19919;-68
2022/09/29 05:01:32;;;;;;;;;;;15.80;99.90;;;;;;4936411;29;19970;-68
2022/09/29 05:03:59;;;;;;;;;;;15.60;99.90;;;;;;4935777;29;20367;-68
2022/09/29 05:06:26;;;;;;;;;;;15.50;99.90;;;;;;4926897;29;20379;-69
2022/09/29 05:08:52;;;;;;;;;;;15.50;99.90;;;;;;4917194;29;19921;-70
2022/09/29 05:11:19;;;;;;;;;;;15.50;99.90;;;;;;4929699;29;19915;-68
2022/09/29 05:13:49;;;;;;;;;;;15.60;99.90;;;;;;4922655;29;19911;-68
2022/09/29 05:16:16;;;;;;;;;;;15.50;99.90;;;;;;4917724;29;19922;-70
2022/09/29 05:18:43;;;;;;;;;;;15.40;99.90;;;;;;4917035;29;20356;-68
2022/09/29 05:21:09;;;;;;;;;;;15.40;99.90;;;;;;4928458;29;19919;-69
2022/09/29 05:23:37;;;;;;;;;;;15.40;99.90;;;;;;4936110;29;20021;-69
2022/09/29 05:26:05;;;;;;;;;;;15.40;99.90;;;;;;4936403;29;19919;-68
2022/09/29 05:28:32;;;;;;;;;;;15.40;99.90;;;;;;4935904;29;19910;-73
2022/09/29 05:31:05;;;;;;;;;;;15.30;99.90;;;;;;4936135;29;19918;-72
2022/09/29 05:33:32;;;;;;;;;;;15.30;99.90;;;;;;4934762;29;19976;-68
2022/09/29 05:36:08;;;;;;;;;;;15.30;99.90;;;;;;4935718;29;20366;-72
2022/09/29 05:38:37;;;;;;;;;;;15.30;99.90;;;;;;4934128;29;20771;-73
2022/09/29 05:41:05;;;;;;;;;;;15.50;99.90;;;;;;4935190;29;19922;-71
2022/09/29 05:43:32;;;;;;;;;;;15.50;99.90;;;;;;4935827;29;19919;-70
2022/09/29 05:46:02;;;;;;;;;;;15.50;99.90;;;;;;4936008;29;19993;-73
2022/09/29 05:48:32;;;;;;;;;;;15.50;99.90;;;;;;4935548;29;19910;-72
2022/09/29 05:50:59;;;;;;;;;;;15.50;99.90;;;;;;4936288;29;19922;-71
2022/09/29 05:53:26;;;;;;;;;;;15.50;99.90;;;;;;4936114;29;20453;-74
2022/09/29 05:55:53;;;;;;;;;;;15.50;99.90;;;;;;4936074;29;19914;-74
2022/09/29 05:58:19;;;;;;;;;;;15.50;99.90;;;;;;4935629;29;19911;-73
2022/09/29 06:00:46;;;;;;;;;;;15.60;99.90;;;;;;4935993;29;19926;-75
2022/09/29 06:03:13;;;;;;;;;;;15.60;99.90;;;;;;4935211;29;19915;-73
2022/09/29 06:05:41;;;;;;;;;;;15.60;99.90;;;;;;4935971;29;19910;-74
2022/09/29 06:08:08;;;;;;;;;;;15.70;99.90;;;;;;4935649;29;19910;-75
2022/09/29 06:10:35;;;;;;;;;;;15.80;99.90;;;;;;4935237;29;19926;-72
2022/09/29 06:13:02;;;;;;;;;;;15.80;99.90;;;;;;4935337;29;19915;-69
2022/09/29 06:15:29;;;;;;;;;;;15.80;99.90;;;;;;4935675;29;19922;-72
2022/09/29 06:17:57;;;;;;;;;;;15.80;99.90;;;;;;4935514;29;19911;-73
2022/09/29 06:20:23;;;;;;;;;;;15.80;99.90;;;;;;4935044;29;19922;-73
2022/09/29 06:22:53;;;;;;;;;;;15.80;99.90;;;;;;4935342;29;20290;-73
2022/09/29 06:25:19;;;;;;;;;;;15.80;99.90;;;;;;4935276;29;19919;-71
2022/09/29 06:27:46;;;;;;;;;;;15.70;99.90;;;;;;4935265;29;19918;-70
2022/09/29 06:30:13;;;;;;;;;;;15.50;99.90;;;;;;4935125;29;19918;-72
2022/09/29 06:32:40;;;;;;;;;;;15.40;99.90;;;;;;4935126;29;19978;-73
2022/09/29 06:37:54;;;;;;;;;;;15.30;99.90;;;;;;4935007;29;19961;-72
2022/09/29 06:40:22;;;;;;;;;;;15.40;99.90;;;;;;4935259;29;19917;-72
2022/09/29 06:42:49;;;;;;;;;;;15.40;99.90;;;;;;4934944;29;19918;-73
2022/09/29 06:45:15;;;;;;;;;;;15.40;99.90;;;;;;4936538;29;19919;-71
2022/09/29 06:47:42;;;;;;;;;;;15.40;99.90;;;;;;4956160;28;19922;-69
2022/09/29 06:50:09;;;;;;;;;;;15.50;99.90;;;;;;4917478;29;19922;-72
2022/09/29 06:52:36;;;;;;;;;;;15.40;99.90;;;;;;4912747;29;19918;-73
2022/09/29 06:55:02;;;;;;;;;;;15.20;99.90;;;;;;4914206;29;19911;-69
2022/09/29 06:57:29;;;;;;;;;;;15.10;99.90;;;;;;4914266;29;20339;-70
2022/09/29 06:59:56;;;;;;;;;;;15.10;99.90;;;;;;4914071;29;20446;-72
2022/09/29 07:02:22;;;;;;;;;;;15.10;99.90;;;;;;4913999;29;20318;-72
2022/09/29 07:04:49;;;;;;;;;;;15.10;99.90;;;;;;4917862;29;20002;-74
2022/09/29 07:07:16;;;;;;;;;;;15.10;99.90;;;;;;4932705;29;20005;-73
2022/09/29 07:09:43;;;;;;;;;;;15.10;99.90;;;;;;4932579;29;19911;-73
2022/09/29 07:12:10;;;;;;;;;;;15.00;99.90;;;;;;4933138;29;19949;-73
2022/09/29 07:14:37;;;;;;;;;;;15.00;99.90;;;;;;4932878;29;19911;-73
2022/09/29 07:17:04;;;;;;;;;;;15.10;99.90;;;;;;4931129;29;20280;-71
2022/09/29 07:19:31;;;;;;;;;;;15.10;99.90;;;;;;4932743;29;19917;-72
2022/09/29 07:21:58;;;;;;;;;;;15.10;99.90;;;;;;4932998;29;19911;-74
2022/09/29 07:24:25;;;;;;;;;;;15.10;99.90;;;;;;4932899;29;19930;-73
2022/09/29 07:26:51;;;;;;;;;;;15.10;99.90;;;;;;4933041;29;19911;-72
2022/09/29 07:29:18;;;;;;;;;;;15.10;99.90;;;;;;4932218;29;19978;-72
2022/09/29 07:31:51;;;;;;;;;;;15.10;99.90;;;;;;4932239;29;19911;-74
2022/09/29 07:34:18;;;;;;;;;;;15.00;99.90;;;;;;4931721;29;20282;-72
2022/09/29 07:36:46;;;;;;;;;;;15.10;99.90;;;;;;4932745;29;19911;-71
2022/09/29 07:39:12;;;;;;;;;;;15.10;99.90;;;;;;4932269;29;20338;-73
2022/09/29 07:41:39;;;;;;;;;;;15.00;99.90;;;;;;4933066;29;20362;-72
2022/09/29 07:44:06;;;;;;;;;;;15.10;99.90;;;;;;4932520;29;19954;-72
2022/09/29 07:46:32;;;;;;;;;;;15.10;99.90;;;;;;4932605;29;19911;-72
2022/09/29 07:48:59;;;;;;;;;;;15.00;99.90;;;;;;4932436;29;20289;-73
2022/09/29 07:51:26;;;;;;;;;;;14.80;99.90;;;;;;4932279;29;20381;-71
2022/09/29 07:53:52;;;;;;;;;;;14.90;99.90;;;;;;4933192;29;19911;-72
2022/09/29 07:56:20;;;;;;;;;;;14.90;99.90;;;;;;4932750;29;19998;-71
2022/09/29 07:58:51;;;;;;;;;;;14.90;99.90;;;;;;4932322;29;19918;-72
2022/09/29 08:01:18;;;;;;;;;;;14.90;99.90;;;;;;4929772;29;19926;-72
2022/09/29 08:03:55;;;;;;;;;;;14.90;99.90;;;;;;4933918;29;19922;-69
2022/09/29 08:06:22;;;;;;;;;;;14.90;99.90;;;;;;4935880;29;20290;-73
2022/09/29 08:08:49;;;;;;;;;;;14.80;99.90;;;;;;4935842;29;19912;-71
2022/09/29 08:11:17;;;;;;;;;;;14.90;99.90;;;;;;4935669;29;20284;-71
2022/09/29 08:13:44;;;;;;;;;;;15.00;99.90;;;;;;4935511;29;19937;-69
2022/09/29 08:16:14;;;;;;;;;;;15.00;99.90;;;;;;4949543;29;20335;-71
2022/09/29 08:18:41;;;;;;;;;;;15.00;99.90;;;;;;4935506;29;19978;-68
2022/09/29 08:21:09;;;;;;;;;;;15.00;99.90;;;;;;4949309;29;19915;-71
2022/09/29 08:23:39;;;;;;;;;;;15.10;99.90;;;;;;4940496;29;19922;-68
2022/09/29 08:26:07;;;;;;;;;;;15.30;99.90;;;;;;4934233;29;19953;-70
2022/09/29 08:28:35;;;;;;;;;;;15.40;99.90;;;;;;4935071;29;19919;-69
2022/09/29 08:31:12;;;;;;;;;;;15.60;99.90;;;;;;4935540;29;19911;-70
2022/09/29 08:33:40;;;;;;;;;;;15.60;99.90;;;;;;4935701;29;19940;-70
2022/09/29 08:36:13;;;;;;;;;;;15.70;99.90;;;;;;4935361;29;20002;-72
2022/09/29 08:38:43;;;;;;;;;;;15.80;99.90;;;;;;4935103;29;19946;-70
2022/09/29 08:41:33;;;;;;;;;;;15.80;99.90;;;;;;4934938;29;19966;-72
2022/09/29 08:44:04;;;;;;;;;;;15.90;99.90;;;;;;4935398;29;19930;-72
2022/09/29 08:46:34;;;;;;;;;;;15.90;99.90;;;;;;4933315;29;20259;-71
2022/09/29 08:49:04;;;;;;;;;;;15.90;99.90;;;;;;4934764;29;19950;-71
2022/09/29 08:51:31;;;;;;;;;;;16.00;99.90;;;;;;4935482;29;19911;-73
2022/09/29 08:54:01;;;;;;;;;;;16.00;99.90;;;;;;4934906;29;19946;-71
2022/09/29 08:56:28;;;;;;;;;;;16.00;99.90;;;;;;4935452;29;19950;-69
2022/09/29 08:58:55;;;;;;;;;;;15.90;99.90;;;;;;4934899;29;19965;-67
2022/09/29 09:01:21;;;;;;;;;;;15.90;99.90;;;;;;4934091;29;19926;-67
2022/09/29 09:03:58;;;;;;;;;;;16.00;99.90;;;;;;4934901;29;19923;-67
2022/09/29 09:06:33;;;;;;;;;;;16.00;99.90;;;;;;4934414;29;19958;-71
2022/09/29 09:09:11;;;;;;;;;;;16.00;99.90;;;;;;4935492;29;19922;-68
2022/09/29 09:12:05;;;;;;;;;;;16.00;99.90;;;;;;4936617;29;20016;-75
2022/09/29 09:14:31;;;;;;;;;;;16.00;99.90;;;;;;4935284;29;19915;-68
2022/09/29 09:16:58;;;;;;;;;;;15.90;99.90;;;;;;4936409;29;19915;-68
2022/09/29 09:19:32;;;;;;;;;;;15.90;99.90;;;;;;4936156;29;19918;-68
2022/09/29 09:22:14;;;;;;;;;;;16.00;99.90;;;;;;4936491;29;19971;-70
2022/09/29 09:24:45;;;;;;;;;;;16.00;99.90;;;;;;4936137;29;20409;-67
2022/09/29 09:27:14;;;;;;;;;;;16.00;99.90;;;;;;4936090;29;20054;-73
2022/09/29 09:29:43;;;;;;;;;;;15.90;99.90;;;;;;4935952;29;19922;-73
2022/09/29 09:32:12;;;;;;;;;;;15.60;99.90;;;;;;4936305;29;19911;-73
2022/09/29 09:34:57;;;;;;;;;;;15.30;99.90;;;;;;4936281;29;19958;-71
2022/09/29 09:37:27;;;;;;;;;;;15.00;99.90;;;;;;4936184;29;19921;-72
2022/09/29 09:39:57;;;;;;;;;;;14.80;99.90;;;;;;4936311;29;19915;-71
2022/09/29 09:42:26;;;;;;;;;;;14.70;99.90;;;;;;4939012;29;19997;-71
2022/09/29 09:44:54;;;;;;;;;;;14.60;99.90;;;;;;4938486;29;19922;-73
2022/09/29 09:47:26;;;;;;;;;;;14.60;99.90;;;;;;4938880;29;19911;-71
2022/09/29 09:50:10;;;;;;;;;;;14.50;99.90;;;;;;4937839;29;19922;-68
2022/09/29 09:52:56;;;;;;;;;;;14.40;99.90;;;;;;4936413;29;20383;-69
2022/09/29 09:55:24;;;;;;;;;;;14.40;99.90;;;;;;4949543;29;19925;-68
2022/09/29 09:57:57;;;;;;;;;;;14.50;99.90;;;;;;4941582;29;19919;-72
2022/09/29 10:00:42;;;;;;;;;;;14.50;99.90;;;;;;4935447;29;20401;-70
2022/09/29 10:03:09;;;;;;;;;;;14.60;99.90;;;;;;4935516;29;19915;-68
2022/09/29 10:05:38;;;;;;;;;;;14.70;99.90;;;;;;4935725;29;19921;-69
2022/09/29 10:08:07;;;;;;;;;;;14.80;99.90;;;;;;4935256;29;19910;-67
2022/09/29 10:10:34;;;;;;;;;;;14.80;99.90;;;;;;4935506;29;19919;-69
2022/09/29 10:13:04;;;;;;;;;;;14.80;99.90;;;;;;4935785;29;19911;-69
2022/09/29 10:15:34;;;;;;;;;;;14.60;99.90;;;;;;4935692;29;19917;-71
2022/09/29 10:18:19;;;;;;;;;;;14.60;99.90;;;;;;4935162;29;19974;-69
2022/09/29 10:20:45;;;;;;;;;;;14.40;99.90;;;;;;4935571;29;20034;-70
2022/09/29 10:23:29;;;;;;;;;;;14.40;99.90;;;;;;4935353;29;19919;-73
2022/09/29 10:25:55;;;;;;;;;;;14.30;99.90;;;;;;4935324;29;19970;-73
2022/09/29 10:28:23;;;;;;;;;;;14.30;99.90;;;;;;4934985;29;19915;-73
2022/09/29 10:30:50;;;;;;;;;;;14.30;99.90;;;;;;4935263;29;19915;-73
2022/09/29 10:33:18;;;;;;;;;;;14.30;99.90;;;;;;4935046;29;19911;-73
2022/09/29 10:35:46;;;;;;;;;;;14.30;99.90;;;;;;4935114;29;19911;-72
2022/09/29 10:38:23;;;;;;;;;;;14.30;99.90;;;;;;4934875;29;19911;-72
2022/09/29 10:41:03;;;;;;;;;;;14.30;99.90;;;;;;4935416;29;19945;-72
2022/09/29 10:43:43;;;;;;;;;;;14.10;99.90;;;;;;4935341;29;20015;-72
2022/09/29 10:46:30;;;;;;;;;;;14.00;99.90;;;;;;4935174;29;19911;-72
2022/09/29 10:49:29;;;;;;;;;;;13.80;99.90;;;;;;4927658;29;20046;-74
2022/09/29 10:51:59;;;;;;;;;;;13.70;99.90;;;;;;4913107;29;19938;-69
2022/09/29 10:54:26;;;;;;;;;;;13.60;99.90;;;;;;4934337;29;19915;-73
2022/09/29 10:56:54;;;;;;;;;;;13.70;99.90;;;;;;4934760;29;20334;-71
2022/09/29 10:59:22;;;;;;;;;;;13.70;99.90;;;;;;4934437;29;19965;-70
2022/09/29 11:01:51;;;;;;;;;;;13.80;99.90;;;;;;4933716;29;19923;-74
2022/09/29 11:04:38;;;;;;;;;;;13.90;99.90;;;;;;4925825;29;19919;-68
2022/09/29 11:07:09;;;;;;;;;;;14.00;99.90;;;;;;4934326;29;19918;-70
2022/09/29 11:09:44;;;;;;;;;;;14.10;99.90;;;;;;4934423;29;19911;-74
2022/09/29 11:12:30;;;;;;;;;;;14.10;99.90;;;;;;4934074;29;19915;-72
2022/09/29 11:14:58;;;;;;;;;;;14.10;99.90;;;;;;4934955;29;20433;-73
2022/09/29 11:17:29;;;;;;;;;;;14.10;99.90;;;;;;4934689;29;19969;-74
2022/09/29 11:19:58;;;;;;;;;;;14.10;99.90;;;;;;4934445;29;19914;-72
2022/09/29 11:22:48;;;;;;;;;;;14.10;99.90;;;;;;4934467;29;19919;-72
2022/09/29 11:25:25;;;;;;;;;;;14.10;99.90;;;;;;4934985;29;19926;-74
2022/09/29 11:27:52;;;;;;;;;;;14.10;99.90;;;;;;4934645;29;20325;-71
2022/09/29 11:30:20;;;;;;;;;;;14.00;99.90;;;;;;4942367;29;19911;-67
2022/09/29 11:33:06;;;;;;;;;;;14.00;99.90;;;;;;4945822;29;19958;-69
2022/09/29 11:35:33;;;;;;;;;;;14.00;99.90;;;;;;4935142;29;20021;-71
2022/09/29 11:38:03;;;;;;;;;;;14.00;99.90;;;;;;4934426;29;19926;-70
2022/09/29 11:40:58;;;;;;;;;;;13.90;99.90;;;;;;4938379;29;20310;-71
2022/09/29 11:43:43;;;;;;;;;;;13.90;99.90;;;;;;4936232;29;19923;-69
2022/09/29 11:46:16;;;;;;;;;;;13.90;99.90;;;;;;4938229;29;19915;-71
2022/09/29 11:48:53;;;;;;;;;;;13.90;99.90;;;;;;4938109;29;19918;-71
2022/09/29 11:51:27;;;;;;;;;;;13.90;99.90;;;;;;4937178;29;20397;-73
2022/09/29 11:54:12;;;;;;;;;;;13.90;99.90;;;;;;4938174;29;19949;-74
2022/09/29 11:56:44;;;;;;;;;;;13.90;99.90;;;;;;4938577;29;19940;-71
2022/09/29 11:59:17;;;;;;;;;;;13.90;99.90;;;;;;4937222;29;19915;-69
2022/09/29 12:01:55;;;;;;;;;;;13.90;99.90;;;;;;4937729;29;19923;-73
2022/09/29 12:04:22;;;;;;;;;;;13.90;99.90;;;;;;4937858;29;19918;-70
2022/09/29 12:06:56;;;;;;;;;;;14.00;99.90;;;;;;4937075;29;20202;-71
2022/09/29 12:09:29;;;;;;;;;;;14.10;99.90;;;;;;4937334;29;20342;-73
2022/09/29 12:12:02;;;;;;;;;;;14.20;99.90;;;;;;4937883;29;19910;-73
2022/09/29 12:14:35;;;;;;;;;;;14.20;99.90;;;;;;4938012;29;19918;-73
2022/09/29 12:17:07;;;;;;;;;;;14.20;99.90;;;;;;4937343;29;19933;-73
2022/09/29 12:19:38;;;;;;;;;;;14.30;99.90;;;;;;4952008;29;19953;-72
2022/09/29 12:22:09;;;;;;;;;;;14.30;99.90;;;;;;4937017;29;19914;-73
2022/09/29 12:24:45;;;;;;;;;;;14.40;99.90;;;;;;4937753;29;19942;-73
2022/09/29 12:27:32;;;;;;;;;;;14.50;99.90;;;;;;4937383;29;19958;-74
2022/09/29 12:30:01;;;;;;;;;;;14.50;99.90;;;;;;4937126;29;20361;-68
2022/09/29 12:32:40;;;;;;;;;;;14.70;99.90;;;;;;4936638;29;19918;-69
2022/09/29 12:35:14;;;;;;;;;;;14.90;99.90;;;;;;4937164;29;19914;-69
2022/09/29 12:37:59;;;;;;;;;;;15.00;99.90;;;;;;4936685;29;20013;-72
2022/09/29 12:40:35;;;;;;;;;;;15.10;99.90;;;;;;4936901;29;20030;-71
2022/09/29 12:43:01;;;;;;;;;;;15.30;99.90;;;;;;4935918;29;19922;-70
2022/09/29 12:45:28;;;;;;;;;;;15.30;99.90;;;;;;4936205;29;20379;-69
2022/09/29 12:48:07;;;;;;;;;;;15.40;99.90;;;;;;4937221;29;19917;-73
2022/09/29 12:50:49;;;;;;;;;;;15.50;99.90;;;;;;4936657;29;19974;-74
2022/09/29 12:53:18;;;;;;;;;;;15.40;99.90;;;;;;4936245;29;19911;-72
2022/09/29 12:55:44;;;;;;;;;;;15.50;99.90;;;;;;4936278;29;19925;-72
2022/09/29 12:58:19;;;;;;;;;;;15.50;99.90;;;;;;4936611;29;20278;-72
2022/09/29 13:00:51;;;;;;;;;;;15.50;99.90;;;;;;4936861;29;19922;-69
2022/09/29 13:03:33;;;;;;;;;;;15.50;99.90;;;;;;4936897;29;20018;-71
2022/09/29 13:06:05;;;;;;;;;;;15.30;99.90;;;;;;4936424;29;19926;-70
2022/09/29 13:08:56;;;;;;;;;;;15.20;99.90;;;;;;4945286;29;19921;-73
2022/09/29 13:11:26;;;;;;;;;;;15.20;99.90;;;;;;4942206;29;19942;-74
2022/09/29 13:13:52;;;;;;;;;;;15.10;99.90;;;;;;4937119;29;19958;-73
2022/09/29 13:16:32;;;;;;;;;;;15.00;99.90;;;;;;4936197;29;19911;-73
2022/09/29 13:19:08;;;;;;;;;;;15.00;99.90;;;;;;4936569;29;20378;-74
2022/09/29 13:21:37;;;;;;;;;;;15.00;99.90;;;;;;4936170;29;19974;-74
2022/09/29 13:24:10;;;;;;;;;;;14.90;99.90;;;;;;4934560;29;20301;-70
2022/09/29 13:26:52;;;;;;;;;;;15.00;99.90;;;;;;4936317;29;19915;-72
2022/09/29 13:29:23;;;;;;;;;;;15.10;99.90;;;;;;4935852;29;19911;-74
2022/09/29 13:31:54;;;;;;;;;;;15.20;99.90;;;;;;4936000;29;19911;-71
2022/09/29 13:34:31;;;;;;;;;;;15.20;99.90;;;;;;4936409;29;19911;-72
2022/09/29 13:37:27;;;;;;;;;;;15.20;99.90;;;;;;4935498;29;20344;-74
2022/09/29 13:39:57;;;;;;;;;;;15.10;99.90;;;;;;4923808;29;20405;-74
2022/09/29 13:42:36;;;;;;;;;;;15.00;99.90;;;;;;4936466;29;19919;-75
2022/09/29 13:45:24;;;;;;;;;;;14.90;99.90;;;;;;4935823;29;19919;-73
2022/09/29 13:47:52;;;;;;;;;;;14.90;99.90;;;;;;4935780;29;19917;-73
2022/09/29 13:50:38;;;;;;;;;;;14.90;99.90;;;;;;4936510;29;20393;-74
2022/09/29 13:53:30;;;;;;;;;;;14.90;99.90;;;;;;4936959;29;19977;-72
2022/09/29 13:56:02;;;;;;;;;;;14.80;99.90;;;;;;4936463;29;19974;-72
2022/09/29 13:58:55;;;;;;;;;;;14.80;99.90;;;;;;4935661;29;20294;-73
2022/09/29 14:01:33;;;;;;;;;;;14.80;99.90;;;;;;4933339;29;20006;-69
2022/09/29 14:04:20;;;;;;;;;;;14.80;99.90;;;;;;4935661;29;20432;-71
2022/09/29 14:06:47;;;;;;;;;;;14.80;99.90;;;;;;4909649;29;19950;-72
2022/09/29 14:09:16;;;;;;;;;;;14.80;99.90;;;;;;4914576;29;20550;-72
2022/09/29 14:11:49;;;;;;;;;;;14.80;99.90;;;;;;4916782;29;19926;-70
2022/09/29 14:14:20;;;;;;;;;;;14.80;99.90;;;;;;4916549;29;19934;-72
2022/09/29 14:16:52;;;;;;;;;;;14.80;99.90;;;;;;4916594;29;19915;-70
2022/09/29 14:19:34;;;;;;;;;;;14.70;99.90;;;;;;4916000;29;19912;-72
2022/09/29 14:22:02;;;;;;;;;;;14.70;99.90;;;;;;4916695;29;19915;-74
2022/09/29 14:24:41;;;;;;;;;;;14.70;99.90;;;;;;4916619;29;20290;-73
2022/09/29 14:27:15;;;;;;;;;;;14.60;99.90;;;;;;4916351;29;20293;-74
2022/09/29 14:29:49;;;;;;;;;;;14.50;99.90;;;;;;4915917;29;19915;-73
2022/09/29 14:32:44;;;;;;;;;;;14.40;99.90;;;;;;4916326;29;19915;-73
2022/09/29 14:35:26;;;;;;;;;;;14.40;99.90;;;;;;4915404;29;19982;-72
2022/09/29 14:38:05;;;;;;;;;;;14.40;99.90;;;;;;4916020;29;20383;-74
2022/09/29 14:40:32;;;;;;;;;;;14.40;99.90;;;;;;4916537;29;19918;-74
2022/09/29 14:43:03;;;;;;;;;;;14.40;99.90;;;;;;4915448;29;20108;-69